Albany, New York
Traffic Map
Current Weather Conditions
Albany, New York
Scattered Clouds
Scattered Clouds
28°
Feels Like: 29°
Wind Chill: 28° Ceiling: Unl
Heat Index: 29° Visibility: 10mi
Dew Point: 17° Wind: 6mph
Humidity: 51% Direction: 210° (SSW)
Pressure: 30.12in Gusts: 0mph
Raw Report DataKALB 042051Z 21005KT 10SM FEW041 SCT050 SCT250 28/17 A3012 RMK AO2 SLP197 T02830172 55007
Traffic Incident Summary
Active as of:
Severity:
Category:
InformationThere was an issue retrieving the traffic information for this location. Please try a different location or try again shortly.
Advertisements
Track Severe Weather on mobile